createdAt,value
2023-11-05T00:00:12.195Z,1.50
2023-11-05T00:02:40.829Z,1.67
2023-11-05T00:05:10.663Z,1.67
2023-11-05T00:07:39.488Z,1.03
2023-11-05T00:10:07.745Z,1.60
2023-11-05T00:12:36.321Z,1.87
2023-11-05T00:15:05.222Z,1.40
2023-11-05T00:17:35.365Z,1.10
2023-11-05T00:20:08.348Z,0.80
2023-11-05T00:22:37.370Z,0.73
2023-11-05T00:25:06.117Z,1.63
2023-11-05T00:27:35.400Z,1.27
2023-11-05T00:30:03.991Z,1.13
2023-11-05T00:32:32.846Z,0.53
2023-11-05T00:35:01.192Z,0.70
2023-11-05T00:37:29.968Z,1.10
2023-11-05T00:39:59.539Z,0.90
2023-11-05T00:42:28.847Z,0.63
2023-11-05T00:44:57.642Z,1.00
2023-11-05T00:47:26.458Z,0.63
2023-11-05T00:49:54.835Z,0.50
2023-11-05T00:52:23.631Z,0.47
2023-11-05T00:54:51.494Z,0.63
2023-11-05T00:57:19.623Z,0.70
2023-11-05T00:59:48.383Z,0.93
2023-11-05T01:02:17.731Z,1.20
2023-11-05T01:04:46.265Z,0.80
2023-11-05T01:07:15.355Z,0.80
2023-11-05T01:09:44.410Z,1.30
2023-11-05T01:12:13.302Z,1.33
2023-11-05T01:14:42.290Z,1.23
2023-11-05T01:17:12.099Z,1.63
2023-11-05T01:19:44.056Z,1.67
2023-11-05T01:22:12.898Z,2.40
2023-11-05T01:24:41.954Z,3.60
2023-11-05T01:27:10.336Z,3.33
2023-11-05T01:29:39.019Z,3.10
2023-11-05T01:32:08.959Z,3.77
2023-11-05T01:34:37.737Z,3.53
2023-11-05T01:37:06.738Z,4.40
2023-11-05T01:39:34.982Z,4.37
2023-11-05T01:42:03.369Z,4.17
2023-11-05T01:44:31.851Z,4.23
2023-11-05T01:47:00.186Z,4.57
2023-11-05T01:49:28.632Z,4.33
2023-11-05T01:51:57.608Z,4.93
2023-11-05T01:54:26.184Z,4.47
2023-11-05T01:56:55.009Z,4.37
2023-11-05T01:59:23.141Z,3.80
2023-11-05T02:01:51.929Z,4.67
2023-11-05T02:04:20.944Z,4.10
2023-11-05T02:06:49.196Z,3.97
2023-11-05T02:09:17.900Z,4.50
2023-11-05T02:11:47.187Z,5.17
2023-11-05T02:14:15.668Z,4.10
2023-11-05T02:16:44.450Z,4.77
2023-11-05T02:19:13.500Z,4.47
2023-11-05T02:21:43.894Z,5.30
2023-11-05T02:24:12.980Z,5.00
2023-11-05T02:26:41.996Z,7.40
2023-11-05T02:29:10.869Z,6.70
2023-11-05T02:31:39.710Z,8.00
2023-11-05T02:34:08.635Z,7.33
2023-11-05T02:36:37.346Z,6.07
2023-11-05T02:39:05.987Z,6.60
2023-11-05T02:41:36.131Z,4.27
2023-11-05T02:44:04.825Z,5.10
2023-11-05T02:46:32.978Z,5.27
2023-11-05T02:49:01.458Z,3.97
2023-11-05T02:51:30.478Z,3.97
2023-11-05T02:53:59.044Z,2.27
2023-11-05T02:56:27.032Z,3.60
2023-11-05T02:58:55.200Z,5.33
2023-11-05T03:01:24.627Z,6.03
2023-11-05T03:03:55.687Z,6.53
2023-11-05T03:06:25.022Z,6.17
2023-11-05T03:08:53.203Z,6.60
2023-11-05T03:11:22.007Z,6.13
2023-11-05T03:13:50.798Z,4.73
2023-11-05T03:16:19.328Z,5.77
2023-11-05T03:18:48.684Z,5.63
2023-11-05T03:21:17.476Z,5.40
2023-11-05T03:23:45.642Z,5.73
2023-11-05T03:26:14.834Z,5.43
2023-11-05T03:28:43.871Z,4.33
2023-11-05T03:31:13.468Z,5.20
2023-11-05T03:33:41.646Z,4.57
2023-11-05T03:36:10.221Z,4.00
2023-11-05T03:38:38.797Z,3.27
2023-11-05T03:41:09.129Z,3.43
2023-11-05T03:43:37.916Z,2.80
2023-11-05T03:46:06.695Z,1.97
2023-11-05T03:48:34.830Z,2.50
2023-11-05T03:51:03.439Z,3.30
2023-11-05T03:53:32.137Z,3.47
2023-11-05T03:56:00.427Z,3.73
2023-11-05T03:58:29.143Z,2.90
2023-11-05T04:00:58.274Z,3.47
2023-11-05T04:03:27.099Z,3.30
2023-11-05T04:05:57.600Z,2.80
2023-11-05T04:08:26.176Z,2.50
2023-11-05T04:10:55.055Z,2.40
2023-11-05T04:13:23.947Z,2.57
2023-11-05T04:15:52.241Z,2.23
2023-11-05T04:18:21.062Z,2.20
2023-11-05T04:20:49.168Z,2.40
2023-11-05T04:23:17.513Z,2.10
2023-11-05T04:25:45.654Z,2.97
2023-11-05T04:28:14.585Z,2.73
2023-11-05T04:30:42.744Z,2.90
2023-11-05T04:33:11.072Z,3.07
2023-11-05T04:35:39.824Z,3.03
2023-11-05T04:38:08.578Z,3.13
2023-11-05T04:40:37.308Z,2.23
2023-11-05T04:43:05.567Z,2.53
2023-11-05T04:45:35.894Z,2.70
2023-11-05T04:48:04.556Z,2.77
2023-11-05T04:50:32.700Z,2.13
2023-11-05T04:53:01.300Z,2.90
2023-11-05T04:55:32.634Z,3.00
2023-11-05T04:58:01.254Z,2.97
2023-11-05T05:00:30.961Z,3.43
2023-11-05T05:05:26.957Z,3.25
2023-11-05T05:07:57.623Z,4.37
2023-11-05T05:10:26.295Z,4.47
2023-11-05T05:12:55.116Z,3.87
2023-11-05T05:15:23.497Z,3.47
2023-11-05T05:17:52.337Z,3.40
2023-11-05T05:20:21.366Z,3.43
2023-11-05T05:22:50.114Z,3.53
2023-11-05T05:25:19.050Z,3.77
2023-11-05T05:27:48.059Z,3.83
2023-11-05T05:30:17.972Z,3.87
2023-11-05T05:32:46.925Z,6.37
2023-11-05T05:35:15.947Z,5.67
2023-11-05T05:37:44.465Z,4.57
2023-11-05T05:40:13.438Z,4.70
2023-11-05T05:42:41.885Z,4.50
2023-11-05T05:45:10.492Z,4.90
2023-11-05T05:47:38.816Z,5.03
2023-11-05T05:50:09.125Z,4.80
2023-11-05T05:52:38.441Z,5.77
2023-11-05T05:55:08.511Z,5.07
2023-11-05T05:57:36.970Z,5.57
2023-11-05T06:00:07.424Z,5.23
2023-11-05T06:02:37.158Z,5.17
2023-11-05T06:05:07.502Z,6.83
2023-11-05T06:07:37.300Z,8.73
2023-11-05T06:10:07.808Z,9.43
2023-11-05T06:12:36.488Z,8.87
2023-11-05T06:15:11.437Z,6.80
2023-11-05T06:17:36.336Z,6.83
2023-11-05T06:20:07.083Z,8.40
2023-11-05T06:22:38.086Z,6.87
2023-11-05T06:25:06.952Z,8.47
2023-11-05T06:27:35.673Z,6.00
2023-11-05T06:30:05.791Z,8.47
2023-11-05T06:32:37.466Z,9.33
2023-11-05T06:35:06.450Z,4.10
2023-11-05T06:37:35.565Z,3.93
2023-11-05T06:40:05.442Z,3.43
2023-11-05T06:42:34.543Z,3.47
2023-11-05T06:47:31.300Z,2.12
2023-11-05T06:50:00.232Z,2.10
2023-11-05T06:52:29.988Z,2.13
2023-11-05T06:54:58.794Z,1.80
2023-11-05T06:57:27.587Z,2.50
2023-11-05T06:59:56.373Z,1.60
2023-11-05T07:02:25.305Z,1.63
2023-11-05T07:04:53.965Z,1.70
2023-11-05T07:07:23.691Z,2.00
2023-11-05T07:09:52.658Z,1.90
2023-11-05T07:12:21.552Z,1.97
2023-11-05T07:14:49.821Z,2.23
2023-11-05T07:17:17.801Z,2.80
2023-11-05T07:19:46.499Z,3.53
2023-11-05T07:22:15.964Z,2.50
2023-11-05T07:24:45.588Z,2.33
2023-11-05T07:27:14.273Z,1.70
2023-11-05T07:29:44.714Z,1.67
2023-11-05T07:32:13.899Z,1.97
2023-11-05T07:39:38.323Z,1.70
2023-11-05T07:42:06.879Z,1.70
2023-11-05T07:44:35.122Z,1.70
2023-11-05T07:47:04.999Z,1.60
2023-11-05T07:49:33.172Z,1.50
2023-11-05T07:52:01.141Z,1.30
2023-11-05T07:54:29.845Z,2.20
2023-11-05T07:56:58.615Z,2.17
2023-11-05T07:59:27.197Z,2.27
2023-11-05T08:01:55.894Z,1.60
2023-11-05T08:04:24.513Z,1.83
2023-11-05T08:06:55.743Z,1.40
2023-11-05T08:09:23.599Z,1.10
2023-11-05T08:11:52.073Z,1.17
2023-11-05T08:14:20.686Z,1.27
2023-11-05T08:16:51.137Z,1.30
2023-11-05T08:19:19.995Z,1.73
2023-11-05T08:21:48.558Z,1.40
2023-11-05T08:24:17.462Z,1.20
2023-11-05T08:26:48.972Z,1.27
2023-11-05T08:29:17.637Z,1.00
2023-11-05T08:31:47.175Z,1.00
2023-11-05T08:34:15.285Z,1.30
2023-11-05T08:36:43.855Z,1.40
2023-11-05T08:39:12.504Z,1.00
2023-11-05T08:41:42.430Z,0.93
2023-11-05T08:44:10.417Z,0.90
2023-11-05T08:46:38.399Z,1.03
2023-11-05T08:49:07.063Z,1.00
2023-11-05T08:51:35.655Z,0.80
2023-11-05T08:54:04.321Z,0.73
2023-11-05T08:56:32.793Z,0.67
2023-11-05T08:59:01.429Z,0.70
2023-11-05T09:01:30.666Z,0.60
2023-11-05T09:03:59.090Z,1.93
2023-11-05T09:06:27.192Z,0.93
2023-11-05T09:08:55.751Z,1.33
2023-11-05T09:11:24.185Z,1.00
2023-11-05T09:13:52.238Z,1.60
2023-11-05T09:16:20.794Z,1.07
2023-11-05T09:18:48.681Z,1.20
2023-11-05T09:21:18.044Z,1.50
2023-11-05T09:23:47.467Z,1.30
2023-11-05T09:26:15.896Z,1.00
2023-11-05T09:28:44.655Z,1.53
2023-11-05T09:31:14.743Z,0.93
2023-11-05T09:33:43.321Z,0.80
2023-11-05T09:36:12.098Z,0.80
2023-11-05T09:38:42.831Z,1.77
2023-11-05T09:41:11.307Z,0.73
2023-11-05T09:43:39.858Z,0.80
2023-11-05T09:46:08.589Z,1.17
2023-11-05T09:48:37.227Z,0.60
2023-11-05T09:51:06.062Z,0.50
2023-11-05T09:53:34.543Z,1.10
2023-11-05T09:56:03.173Z,0.63
2023-11-05T09:58:31.751Z,1.63
2023-11-05T10:00:59.667Z,0.80
2023-11-05T10:03:27.957Z,0.80
2023-11-05T10:05:57.574Z,1.07
2023-11-05T10:08:26.042Z,1.10
2023-11-05T10:10:57.311Z,0.90
2023-11-05T10:13:29.779Z,1.00
2023-11-05T10:16:05.304Z,0.90
2023-11-05T10:21:01.358Z,0.65
2023-11-05T10:23:30.143Z,0.57
2023-11-05T10:25:58.769Z,0.30
2023-11-05T10:28:29.080Z,0.33
2023-11-05T10:31:00.685Z,0.47
2023-11-05T10:33:30.278Z,0.50
2023-11-05T10:35:58.832Z,0.50
2023-11-05T10:38:28.926Z,0.70
2023-11-05T10:40:58.269Z,0.77
2023-11-05T10:43:27.491Z,0.50
2023-11-05T10:48:23.242Z,0.53
2023-11-05T10:50:52.525Z,0.47
2023-11-05T10:55:50.165Z,0.82
2023-11-05T10:58:24.362Z,0.40
2023-11-05T11:00:52.178Z,0.57
2023-11-05T11:03:22.749Z,0.33
2023-11-05T11:05:52.707Z,0.60
2023-11-05T11:08:25.945Z,0.37
2023-11-05T11:10:56.084Z,0.57
2023-11-05T11:13:35.278Z,0.90
2023-11-05T11:16:04.836Z,0.40
2023-11-05T11:18:34.360Z,0.40
2023-11-05T11:21:04.564Z,0.60
2023-11-05T11:23:33.227Z,0.60
2023-11-05T11:26:03.353Z,0.63
2023-11-05T11:28:32.454Z,0.63
2023-11-05T11:33:31.624Z,0.47
2023-11-05T11:35:59.737Z,0.63
2023-11-05T11:38:27.866Z,0.60
2023-11-05T11:40:56.630Z,0.50
2023-11-05T11:43:25.907Z,0.63
2023-11-05T11:45:54.579Z,0.50
2023-11-05T11:48:29.230Z,0.70
2023-11-05T11:51:00.189Z,0.60
2023-11-05T11:53:30.192Z,0.57
2023-11-05T11:55:59.418Z,1.57
2023-11-05T11:58:29.749Z,1.17
2023-11-05T12:01:08.612Z,0.90
2023-11-05T12:03:37.368Z,0.40
2023-11-05T12:06:05.767Z,0.50
2023-11-05T12:08:41.023Z,1.37
2023-11-05T12:11:10.934Z,0.60
2023-11-05T12:13:44.901Z,0.90
2023-11-05T12:16:13.589Z,1.17
2023-11-05T12:18:43.547Z,0.93
2023-11-05T12:21:12.552Z,1.87
2023-11-05T12:23:42.404Z,2.00
2023-11-05T12:26:12.038Z,0.60
2023-11-05T12:28:41.531Z,0.67
2023-11-05T12:31:10.330Z,0.60
2023-11-05T12:33:40.974Z,0.30
2023-11-05T12:36:11.236Z,0.30
2023-11-05T12:38:39.898Z,0.40
2023-11-05T12:41:09.313Z,0.50
2023-11-05T12:43:37.910Z,0.40
2023-11-05T12:46:06.794Z,0.47
2023-11-05T12:48:35.549Z,0.53
2023-11-05T12:51:04.193Z,0.40
2023-11-05T12:53:34.057Z,0.50
2023-11-05T12:56:07.174Z,0.30
2023-11-05T12:58:36.750Z,0.30
2023-11-05T13:01:06.726Z,0.40
2023-11-05T13:03:37.031Z,0.30
2023-11-05T13:06:09.215Z,0.30
2023-11-05T13:08:38.636Z,0.33
2023-11-05T13:11:09.163Z,1.17
2023-11-05T13:13:37.739Z,0.40
2023-11-05T13:16:07.094Z,0.97
2023-11-05T13:18:35.756Z,0.40
2023-11-05T13:21:05.756Z,0.30
2023-11-05T13:23:34.277Z,0.40
2023-11-05T13:26:03.000Z,0.30
2023-11-05T13:28:32.597Z,0.50
2023-11-05T13:31:02.854Z,0.40
2023-11-05T13:33:31.975Z,0.60
2023-11-05T13:36:00.776Z,0.50
2023-11-05T13:38:29.254Z,0.70
2023-11-05T13:40:58.158Z,0.43
2023-11-05T13:43:26.132Z,0.60
2023-11-05T13:45:55.701Z,0.90
2023-11-05T13:48:24.144Z,0.67
2023-11-05T13:50:53.404Z,0.40
2023-11-05T13:53:21.797Z,0.43
2023-11-05T13:55:50.477Z,0.43
2023-11-05T13:58:20.681Z,0.70
2023-11-05T14:00:49.143Z,0.60
2023-11-05T14:03:19.196Z,0.50
2023-11-05T14:05:47.828Z,0.70
2023-11-05T14:08:17.492Z,0.60
2023-11-05T14:10:47.944Z,1.00
2023-11-05T14:13:16.631Z,0.70
2023-11-05T14:15:44.945Z,0.80
2023-11-05T14:18:13.479Z,0.70
2023-11-05T14:20:42.245Z,0.70
2023-11-05T14:23:12.245Z,0.70
2023-11-05T14:25:41.497Z,1.13
2023-11-05T14:28:09.964Z,0.80
2023-11-05T14:30:38.509Z,0.60
2023-11-05T14:33:07.254Z,0.60
2023-11-05T14:35:35.595Z,1.03
2023-11-05T14:38:04.399Z,0.77
2023-11-05T14:40:32.966Z,0.60
2023-11-05T14:43:02.972Z,0.60
2023-11-05T14:45:34.078Z,1.10
2023-11-05T14:48:02.669Z,1.00
2023-11-05T14:50:32.019Z,0.80
2023-11-05T14:53:04.435Z,0.70
2023-11-05T14:55:32.391Z,0.80
2023-11-05T14:58:03.799Z,1.00
2023-11-05T15:00:33.399Z,1.00
2023-11-05T15:03:03.564Z,0.60
2023-11-05T15:05:32.504Z,0.87
2023-11-05T15:08:01.451Z,0.80
2023-11-05T15:10:30.355Z,0.73
2023-11-05T15:12:59.107Z,0.90
2023-11-05T15:15:27.346Z,1.30
2023-11-05T15:17:55.730Z,1.03
2023-11-05T15:20:24.539Z,1.60
2023-11-05T15:22:53.284Z,0.93
2023-11-05T15:25:23.172Z,1.17
2023-11-05T15:27:52.898Z,1.87
2023-11-05T15:30:23.381Z,0.93
2023-11-05T15:32:53.124Z,0.70
2023-11-05T15:35:22.891Z,1.10
2023-11-05T15:37:51.552Z,0.90
2023-11-05T15:40:21.295Z,1.30
2023-11-05T15:42:51.909Z,3.03
2023-11-05T15:45:21.748Z,1.37
2023-11-05T15:47:50.510Z,0.80
2023-11-05T15:50:23.866Z,0.67
2023-11-05T15:52:52.756Z,1.10
2023-11-05T15:55:23.577Z,1.40
2023-11-05T15:57:51.496Z,2.60
2023-11-05T16:00:22.268Z,1.63
2023-11-05T16:02:50.811Z,1.43
2023-11-05T16:05:19.344Z,1.57
2023-11-05T16:07:47.953Z,1.50
2023-11-05T16:10:16.920Z,0.90
2023-11-05T16:12:44.932Z,1.10
2023-11-05T16:15:14.576Z,1.10
2023-11-05T16:17:43.793Z,0.77
2023-11-05T16:20:12.780Z,0.70
2023-11-05T16:22:41.531Z,0.70
2023-11-05T16:25:10.015Z,1.20
2023-11-05T16:27:39.390Z,0.97
2023-11-05T16:30:09.357Z,1.03
2023-11-05T16:32:38.708Z,0.70
2023-11-05T16:35:07.629Z,1.00
2023-11-05T16:37:36.807Z,1.37
2023-11-05T16:40:05.784Z,1.47
2023-11-05T16:42:34.223Z,2.10
2023-11-05T16:45:02.407Z,2.40
2023-11-05T16:47:30.783Z,0.90
2023-11-05T16:49:59.270Z,0.53
2023-11-05T16:52:28.335Z,0.60
2023-11-05T16:54:57.779Z,1.63
2023-11-05T16:57:26.545Z,3.60
2023-11-05T16:59:55.353Z,2.43
2023-11-05T17:02:24.026Z,4.10
2023-11-05T17:04:52.640Z,2.40
2023-11-05T17:07:20.791Z,1.40
2023-11-05T17:09:49.362Z,1.40
2023-11-05T17:12:18.062Z,1.40
2023-11-05T17:14:46.422Z,2.03
2023-11-05T17:17:15.045Z,2.73
2023-11-05T17:19:43.812Z,6.47
2023-11-05T17:22:11.887Z,1.30
2023-11-05T17:24:40.462Z,0.77
2023-11-05T17:27:09.037Z,0.70
2023-11-05T17:29:37.418Z,0.60
2023-11-05T17:32:08.411Z,1.00
2023-11-05T17:34:36.894Z,1.07
2023-11-05T17:37:05.519Z,0.50
2023-11-05T17:39:34.017Z,0.83
2023-11-05T17:42:02.609Z,0.80
2023-11-05T17:44:31.382Z,0.77
2023-11-05T17:47:00.245Z,0.80
2023-11-05T17:49:28.294Z,1.13
2023-11-05T17:51:57.546Z,1.10
2023-11-05T17:54:26.554Z,1.03
2023-11-05T17:56:55.218Z,0.63
2023-11-05T17:59:25.564Z,0.77
2023-11-05T18:01:54.193Z,1.17
2023-11-05T18:04:24.416Z,0.40
2023-11-05T18:06:54.563Z,0.73
2023-11-05T18:09:22.954Z,1.10
2023-11-05T18:11:53.278Z,0.93
2023-11-05T18:14:22.085Z,1.30
2023-11-05T18:16:51.206Z,1.30
2023-11-05T18:19:19.739Z,1.30
2023-11-05T18:21:49.087Z,3.10
2023-11-05T18:24:17.225Z,3.87
2023-11-05T18:26:45.942Z,1.47
2023-11-05T18:29:14.558Z,1.60
2023-11-05T18:31:43.355Z,2.00
2023-11-05T18:34:11.886Z,1.17
2023-11-05T18:36:40.468Z,1.87
2023-11-05T18:39:10.336Z,1.90
2023-11-05T18:41:45.209Z,1.30
2023-11-05T18:44:13.805Z,1.40
2023-11-05T18:46:42.125Z,1.07
2023-11-05T18:49:10.926Z,2.80
2023-11-05T18:51:38.964Z,1.80
2023-11-05T18:54:07.747Z,1.43
2023-11-05T18:56:36.287Z,3.07
2023-11-05T18:59:05.640Z,1.90
2023-11-05T19:01:34.150Z,2.07
2023-11-05T19:04:02.291Z,1.63
2023-11-05T19:06:31.111Z,1.17
2023-11-05T19:08:59.519Z,1.63
2023-11-05T19:11:28.208Z,1.33
2023-11-05T19:14:06.749Z,1.10
2023-11-05T19:16:27.010Z,1.20
2023-11-05T19:18:56.054Z,1.47
2023-11-05T19:21:25.810Z,2.83
2023-11-05T19:23:54.503Z,1.83
2023-11-05T19:26:24.843Z,2.20
2023-11-05T19:28:53.206Z,1.60
2023-11-05T19:31:22.194Z,0.77
2023-11-05T19:33:50.963Z,1.53
2023-11-05T19:36:20.596Z,1.03
2023-11-05T19:38:49.988Z,1.23
2023-11-05T19:41:21.084Z,1.53
2023-11-05T19:43:49.852Z,2.43
2023-11-05T19:46:19.477Z,1.53
2023-11-05T19:48:48.498Z,2.00
2023-11-05T19:56:25.782Z,1.90
2023-11-05T19:58:50.703Z,2.30
2023-11-05T20:01:20.670Z,1.40
2023-11-05T20:03:49.492Z,1.53
2023-11-05T20:06:20.002Z,1.20
2023-11-05T20:08:49.496Z,0.80
2023-11-05T20:11:18.888Z,1.00
2023-11-05T20:13:48.425Z,1.63
2023-11-05T20:16:17.293Z,0.70
2023-11-05T20:18:47.440Z,0.70
2023-11-05T20:21:16.614Z,0.70
2023-11-05T20:23:46.002Z,0.80
2023-11-05T20:26:14.971Z,0.90
2023-11-05T20:31:14.842Z,1.25
2023-11-05T20:33:43.655Z,1.17
2023-11-05T20:36:12.119Z,1.00
2023-11-05T20:38:42.235Z,2.30
2023-11-05T20:41:11.277Z,0.80
2023-11-05T20:46:07.471Z,0.65
2023-11-05T20:48:36.201Z,0.90
2023-11-05T20:51:06.283Z,1.50
2023-11-05T20:53:35.176Z,1.43
2023-11-05T20:56:03.817Z,1.07
2023-11-05T20:58:32.099Z,1.43
2023-11-05T21:01:01.023Z,1.40
2023-11-05T21:03:29.880Z,1.50
2023-11-05T21:05:58.190Z,1.03
2023-11-05T21:08:26.755Z,0.90
2023-11-05T21:10:58.286Z,1.10
2023-11-05T21:13:25.926Z,0.93
2023-11-05T21:15:54.812Z,0.90
2023-11-05T21:18:22.995Z,1.80
2023-11-05T21:20:51.849Z,1.80
2023-11-05T21:23:20.011Z,1.60
2023-11-05T21:25:48.275Z,1.10
2023-11-05T21:28:16.924Z,0.93
2023-11-05T21:30:45.814Z,0.87
2023-11-05T21:33:16.503Z,1.10
2023-11-05T21:35:45.185Z,1.33
2023-11-05T21:38:13.706Z,1.13
2023-11-05T21:40:42.289Z,1.23
2023-11-05T21:43:10.936Z,1.73
2023-11-05T21:45:39.502Z,1.60
2023-11-05T21:48:08.548Z,2.10
2023-11-05T21:50:39.064Z,1.77
2023-11-05T21:53:08.069Z,1.70
2023-11-05T21:58:03.675Z,1.65
2023-11-05T22:00:32.365Z,1.87
2023-11-05T22:03:01.145Z,1.23
2023-11-05T22:05:30.195Z,1.20
2023-11-05T22:07:59.080Z,1.60
2023-11-05T22:10:28.136Z,1.70
2023-11-05T22:12:56.821Z,1.80
2023-11-05T22:15:25.611Z,2.63
2023-11-05T22:17:53.982Z,1.80
2023-11-05T22:20:23.343Z,2.57
2023-11-05T22:25:19.431Z,1.45
2023-11-05T22:27:48.231Z,1.90
2023-11-05T22:30:17.007Z,1.80
2023-11-05T22:32:45.820Z,2.20
2023-11-05T22:35:14.898Z,2.07
2023-11-05T22:37:43.900Z,2.10
2023-11-05T22:40:15.994Z,2.57
2023-11-05T22:42:44.721Z,3.03
2023-11-05T22:45:13.323Z,4.37
2023-11-05T22:47:44.115Z,4.30
2023-11-05T22:50:12.163Z,3.80
2023-11-05T22:52:42.669Z,3.63
2023-11-05T22:55:11.649Z,2.97
2023-11-05T22:57:40.225Z,2.33
2023-11-05T23:00:10.519Z,3.20
2023-11-05T23:02:39.172Z,2.20
2023-11-05T23:05:07.459Z,2.13
2023-11-05T23:07:37.952Z,2.20
2023-11-05T23:10:06.642Z,2.97
2023-11-05T23:12:35.214Z,2.00
2023-11-05T23:15:03.983Z,2.97
2023-11-05T23:17:33.054Z,3.40
2023-11-05T23:20:01.792Z,3.20
2023-11-05T23:22:30.358Z,3.23
2023-11-05T23:24:58.934Z,2.70
2023-11-05T23:27:27.750Z,2.73
2023-11-05T23:29:56.450Z,2.33
2023-11-05T23:32:25.822Z,2.67
2023-11-05T23:34:54.651Z,2.13
2023-11-05T23:37:22.598Z,1.93
2023-11-05T23:39:51.386Z,2.40
2023-11-05T23:42:20.099Z,2.13
2023-11-05T23:44:48.574Z,1.90
2023-11-05T23:47:17.621Z,2.23
2023-11-05T23:49:46.045Z,2.57
2023-11-05T23:52:15.017Z,2.17
2023-11-05T23:54:43.723Z,2.00
2023-11-05T23:57:12.501Z,1.97
2023-11-05T23:59:40.680Z,2.90
